createdAt,value
2018-01-10T00:01:00.242Z,87.17
2018-01-10T00:03:27.643Z,86.34
2018-01-10T00:05:55.058Z,86.64
2018-01-10T00:08:22.454Z,86.26
2018-01-10T00:10:49.850Z,86.70
2018-01-10T00:13:17.250Z,87.47
2018-01-10T00:15:44.646Z,88.11
2018-01-10T00:18:12.047Z,88.29
2018-01-10T00:20:39.452Z,88.16
2018-01-10T00:23:06.826Z,88.18
2018-01-10T00:25:34.230Z,87.90
2018-01-10T00:28:01.618Z,87.04
2018-01-10T00:30:29.018Z,87.25
2018-01-10T00:32:56.441Z,87.15
2018-01-10T00:35:23.850Z,86.48
2018-01-10T00:37:51.239Z,86.65
2018-01-10T00:40:18.643Z,85.85
2018-01-10T00:42:46.032Z,85.23
2018-01-10T00:45:13.464Z,84.93
2018-01-10T00:47:40.878Z,84.12
2018-01-10T00:50:08.294Z,84.11
2018-01-10T00:52:35.749Z,84.23
2018-01-10T00:55:03.153Z,83.66
2018-01-10T00:57:30.627Z,83.56
2018-01-10T00:59:58.012Z,83.02
2018-01-10T01:02:25.416Z,82.89
2018-01-10T01:04:52.807Z,82.53
2018-01-10T01:07:20.240Z,82.21
2018-01-10T01:09:47.611Z,81.84
2018-01-10T01:12:15.045Z,81.75
2018-01-10T01:14:42.418Z,81.86
2018-01-10T01:17:09.822Z,82.18
2018-01-10T01:19:37.219Z,82.04
2018-01-10T01:22:04.628Z,81.67
2018-01-10T01:24:32.117Z,81.76
2018-01-10T01:26:59.537Z,82.43
2018-01-10T01:29:27.026Z,83.17
2018-01-10T01:31:54.438Z,83.97
2018-01-10T01:34:21.839Z,85.33
2018-01-10T01:36:49.229Z,85.94
2018-01-10T01:39:16.621Z,86.41
2018-01-10T01:41:44.027Z,86.71
2018-01-10T01:44:11.426Z,86.92
2018-01-10T01:46:38.919Z,87.26
2018-01-10T01:49:06.306Z,87.29
2018-01-10T01:51:33.709Z,87.35
2018-01-10T01:54:01.120Z,86.90
2018-01-10T01:56:28.498Z,86.35
2018-01-10T01:58:55.910Z,85.77
2018-01-10T02:01:23.319Z,85.08
2018-01-10T02:03:50.723Z,84.61
2018-01-10T02:06:18.162Z,83.86
2018-01-10T02:08:45.547Z,83.56
2018-01-10T02:11:12.938Z,83.17
2018-01-10T02:13:40.347Z,82.83
2018-01-10T02:16:07.738Z,82.12
2018-01-10T02:18:35.249Z,81.38
2018-01-10T02:21:02.627Z,80.93
2018-01-10T02:23:30.031Z,80.28
2018-01-10T02:25:57.420Z,80.65
2018-01-10T02:28:24.826Z,80.85
2018-01-10T02:30:52.226Z,80.13
2018-01-10T02:33:19.626Z,79.63
2018-01-10T02:35:47.022Z,79.16
2018-01-10T02:38:14.415Z,79.10
2018-01-10T02:40:41.814Z,79.31
2018-01-10T02:43:09.288Z,79.44
2018-01-10T02:45:36.682Z,80.35
2018-01-10T02:48:04.087Z,80.04
2018-01-10T02:50:31.491Z,80.09
2018-01-10T02:52:58.899Z,80.52
2018-01-10T02:55:26.299Z,80.25
2018-01-10T02:57:53.694Z,80.03
2018-01-10T03:00:21.090Z,80.45
2018-01-10T03:02:48.526Z,80.30
2018-01-10T03:05:15.941Z,80.63
2018-01-10T03:07:43.335Z,80.77
2018-01-10T03:10:10.734Z,81.62
2018-01-10T03:12:38.130Z,81.55
2018-01-10T03:15:05.535Z,81.44
2018-01-10T03:17:32.963Z,81.27
2018-01-10T03:20:00.364Z,81.92
2018-01-10T03:22:27.757Z,83.73
2018-01-10T03:24:55.174Z,84.65
2018-01-10T03:27:22.551Z,84.29
2018-01-10T03:29:49.952Z,85.11
2018-01-10T03:32:17.356Z,85.14
2018-01-10T03:34:44.761Z,85.09
2018-01-10T03:37:12.161Z,86.21
2018-01-10T03:39:39.559Z,85.70
2018-01-10T03:42:06.946Z,85.38
2018-01-10T03:44:34.362Z,85.12
2018-01-10T03:47:01.756Z,85.07
2018-01-10T03:49:29.152Z,85.59
2018-01-10T03:51:56.554Z,86.74
2018-01-10T03:54:23.946Z,86.87
2018-01-10T03:56:51.350Z,87.40
2018-01-10T03:59:18.750Z,87.68
2018-01-10T04:01:46.161Z,88.08
2018-01-10T04:04:13.548Z,87.75
2018-01-10T04:06:40.951Z,87.96
2018-01-10T04:09:08.351Z,87.49
2018-01-10T04:11:35.747Z,87.67
2018-01-10T04:14:03.134Z,87.84
2018-01-10T04:16:30.554Z,88.10
2018-01-10T04:18:57.955Z,87.41
2018-01-10T04:21:25.358Z,87.09
2018-01-10T04:23:52.756Z,86.87
2018-01-10T04:26:20.177Z,86.20
2018-01-10T04:28:47.562Z,85.38
2018-01-10T04:31:14.974Z,85.08
2018-01-10T04:33:42.354Z,84.41
2018-01-10T04:36:09.757Z,84.41
2018-01-10T04:38:37.152Z,84.29
2018-01-10T04:41:04.564Z,84.46
2018-01-10T04:43:31.958Z,84.75
2018-01-10T04:45:59.355Z,85.32
2018-01-10T04:48:26.776Z,85.67
2018-01-10T04:50:54.274Z,85.93
2018-01-10T04:53:21.683Z,86.27
2018-01-10T04:55:49.077Z,87.57
2018-01-10T04:58:16.479Z,88.64
2018-01-10T05:00:43.880Z,88.83
2018-01-10T05:03:11.279Z,88.85
2018-01-10T05:05:38.674Z,88.50
2018-01-10T05:08:06.076Z,88.17
2018-01-10T05:10:33.511Z,87.97
2018-01-10T05:13:00.912Z,88.47
2018-01-10T05:15:28.316Z,88.72
2018-01-10T05:17:55.720Z,88.67
2018-01-10T05:20:23.118Z,88.01
2018-01-10T05:22:50.522Z,87.62
2018-01-10T05:25:17.906Z,87.26
2018-01-10T05:27:45.315Z,86.62
2018-01-10T05:30:12.794Z,86.23
2018-01-10T05:32:40.162Z,85.76
2018-01-10T05:35:07.548Z,85.31
2018-01-10T05:37:34.958Z,84.39
2018-01-10T05:40:02.358Z,83.83
2018-01-10T05:42:29.749Z,83.09
2018-01-10T05:44:57.145Z,82.48
2018-01-10T05:47:24.542Z,82.25
2018-01-10T05:49:51.946Z,81.79
2018-01-10T05:52:19.334Z,81.14
2018-01-10T05:54:46.731Z,81.38
2018-01-10T05:57:14.125Z,81.96
2018-01-10T05:59:41.532Z,81.39
2018-01-10T06:02:08.931Z,80.83
2018-01-10T06:04:36.326Z,80.15
2018-01-10T06:07:03.727Z,80.20
2018-01-10T06:09:31.137Z,79.96
2018-01-10T06:11:58.579Z,79.83
2018-01-10T06:14:25.982Z,79.48
2018-01-10T06:16:53.377Z,79.55
2018-01-10T06:19:20.815Z,79.42
2018-01-10T06:21:48.200Z,79.39
2018-01-10T06:24:15.607Z,79.14
2018-01-10T06:26:42.999Z,79.20
2018-01-10T06:29:10.423Z,80.11
2018-01-10T06:31:37.823Z,80.40
2018-01-10T06:34:05.218Z,80.87
2018-01-10T06:36:32.622Z,81.66
2018-01-10T06:39:00.017Z,81.61
2018-01-10T06:41:27.419Z,81.30
2018-01-10T06:43:54.811Z,81.18
2018-01-10T06:46:22.216Z,80.92
2018-01-10T06:48:49.607Z,81.05
2018-01-10T06:51:17.005Z,81.01
2018-01-10T06:53:44.408Z,81.57
2018-01-10T06:56:11.859Z,82.42
2018-01-10T06:58:39.235Z,82.45
2018-01-10T07:01:06.643Z,82.79
2018-01-10T07:03:34.045Z,83.44
2018-01-10T07:06:01.434Z,84.65
2018-01-10T07:08:28.822Z,85.07
2018-01-10T07:10:56.224Z,84.78
2018-01-10T07:13:23.619Z,84.93
2018-01-10T07:15:51.027Z,85.75
2018-01-10T07:18:18.426Z,86.19
2018-01-10T07:20:45.846Z,86.53
2018-01-10T07:23:13.236Z,85.73
2018-01-10T07:25:40.645Z,85.56
2018-01-10T07:28:08.039Z,84.56
2018-01-10T07:30:35.434Z,83.62
2018-01-10T07:33:02.843Z,83.30
2018-01-10T07:35:30.239Z,82.68
2018-01-10T07:37:57.641Z,82.41
2018-01-10T07:40:25.031Z,82.03
2018-01-10T07:42:52.435Z,81.83
2018-01-10T07:45:19.856Z,81.30
2018-01-10T07:47:47.255Z,80.89
2018-01-10T07:50:14.647Z,80.40
2018-01-10T07:52:42.050Z,79.69
2018-01-10T07:55:09.450Z,79.92
2018-01-10T07:57:36.846Z,79.45
2018-01-10T08:00:04.241Z,79.04
2018-01-10T08:02:31.645Z,78.89
2018-01-10T08:04:59.043Z,78.87
2018-01-10T08:07:26.455Z,79.46
2018-01-10T08:09:53.847Z,79.66
2018-01-10T08:12:21.252Z,80.11
2018-01-10T08:14:48.645Z,80.05
2018-01-10T08:17:16.059Z,79.87
2018-01-10T08:19:43.450Z,79.96
2018-01-10T08:22:10.841Z,79.45
2018-01-10T08:24:38.238Z,79.45
2018-01-10T08:27:05.635Z,79.54
2018-01-10T08:29:33.041Z,80.40
2018-01-10T08:32:00.435Z,80.82
2018-01-10T08:34:28.798Z,81.12
2018-01-10T08:36:56.186Z,81.84
2018-01-10T08:39:23.594Z,82.28
2018-01-10T08:41:50.987Z,82.12
2018-01-10T08:44:18.388Z,81.89
2018-01-10T08:46:45.784Z,81.54
2018-01-10T08:49:13.191Z,81.15
2018-01-10T08:51:40.582Z,80.70
2018-01-10T08:54:07.984Z,79.84
2018-01-10T08:56:35.375Z,79.01
2018-01-10T08:59:02.783Z,79.28
2018-01-10T09:01:30.267Z,78.86
2018-01-10T09:03:57.667Z,78.59
2018-01-10T09:06:25.711Z,78.30
2018-01-10T09:08:53.113Z,77.95
2018-01-10T09:11:20.508Z,77.52
2018-01-10T09:13:47.910Z,77.27
2018-01-10T09:16:15.303Z,79.51
2018-01-10T09:18:42.706Z,79.96
2018-01-10T09:21:10.103Z,79.77
2018-01-10T09:23:37.491Z,78.13
2018-01-10T09:26:04.891Z,74.30
2018-01-10T09:28:32.287Z,69.79
2018-01-10T09:30:59.701Z,68.38
2018-01-10T09:33:27.104Z,65.72
2018-01-10T09:35:54.510Z,61.92
2018-01-10T09:38:21.913Z,60.21
2018-01-10T09:40:49.311Z,60.72
2018-01-10T09:43:16.710Z,62.12
2018-01-10T09:45:44.133Z,63.71
2018-01-10T09:48:11.523Z,66.36
2018-01-10T09:50:38.922Z,67.56
2018-01-10T09:53:06.315Z,69.19
2018-01-10T09:55:33.727Z,69.78
2018-01-10T09:58:01.119Z,69.93
2018-01-10T10:00:28.539Z,68.03
2018-01-10T10:02:55.936Z,66.86
2018-01-10T10:05:23.346Z,66.23
2018-01-10T10:07:50.748Z,66.52
2018-01-10T10:10:18.164Z,66.75
2018-01-10T10:12:46.351Z,67.66
2018-01-10T10:15:13.750Z,68.14
2018-01-10T10:17:41.207Z,68.75
2018-01-10T10:20:08.611Z,69.05
2018-01-10T10:22:36.011Z,69.46
2018-01-10T10:25:03.402Z,70.88
2018-01-10T10:27:30.801Z,71.48
2018-01-10T10:29:58.195Z,71.85
2018-01-10T10:32:25.634Z,72.61
2018-01-10T10:34:53.030Z,72.96
2018-01-10T10:37:20.431Z,73.57
2018-01-10T10:39:47.853Z,74.45
2018-01-10T10:42:15.240Z,74.80
2018-01-10T10:44:42.722Z,75.36
2018-01-10T10:47:10.094Z,75.39
2018-01-10T10:49:37.498Z,74.94
2018-01-10T10:52:04.902Z,74.81
2018-01-10T10:54:32.295Z,74.80
2018-01-10T10:56:59.712Z,74.43
2018-01-10T10:59:27.111Z,74.35
2018-01-10T11:01:54.516Z,74.63
2018-01-10T11:04:21.965Z,74.59
2018-01-10T11:06:49.353Z,74.94
2018-01-10T11:09:16.751Z,75.15
2018-01-10T11:11:44.143Z,75.30
2018-01-10T11:14:11.584Z,75.94
2018-01-10T11:16:39.886Z,76.68
2018-01-10T11:19:07.291Z,77.11
2018-01-10T11:21:34.697Z,76.78
2018-01-10T11:24:02.119Z,76.80
2018-01-10T11:26:29.515Z,76.79
2018-01-10T11:28:56.919Z,76.98
2018-01-10T11:31:24.323Z,77.15
2018-01-10T11:33:51.726Z,76.80
2018-01-10T11:36:19.118Z,76.84
2018-01-10T11:38:46.540Z,76.47
2018-01-10T11:41:14.007Z,76.74
2018-01-10T11:43:41.730Z,76.85
2018-01-10T11:46:09.122Z,77.37
2018-01-10T11:48:36.541Z,77.28
2018-01-10T11:51:03.927Z,76.82
2018-01-10T11:53:31.321Z,76.81
2018-01-10T11:55:58.718Z,77.10
2018-01-10T11:58:26.111Z,77.97
2018-01-10T12:00:53.524Z,78.65
2018-01-10T12:03:20.926Z,78.51
2018-01-10T12:05:48.343Z,78.92
2018-01-10T12:08:15.743Z,79.34
2018-01-10T12:10:43.140Z,79.48
2018-01-10T12:13:10.534Z,79.86
2018-01-10T12:15:37.933Z,79.77
2018-01-10T12:18:05.326Z,79.95
2018-01-10T12:20:32.799Z,80.14
2018-01-10T12:23:00.254Z,80.12
2018-01-10T12:25:27.658Z,80.41
2018-01-10T12:27:55.051Z,80.33
2018-01-10T12:30:22.614Z,80.26
2018-01-10T12:32:49.990Z,80.15
2018-01-10T12:35:17.395Z,79.70
2018-01-10T12:37:44.796Z,79.08
2018-01-10T12:40:12.185Z,78.82
2018-01-10T12:42:39.598Z,78.79
2018-01-10T12:45:07.003Z,78.66
2018-01-10T12:47:34.397Z,78.14
2018-01-10T12:50:01.790Z,77.69
2018-01-10T12:52:29.199Z,77.26
2018-01-10T12:54:56.590Z,77.22
2018-01-10T12:57:24.002Z,77.32
2018-01-10T12:59:51.401Z,76.98
2018-01-10T13:02:18.817Z,77.17
2018-01-10T13:04:46.225Z,76.78
2018-01-10T13:07:13.672Z,76.85
2018-01-10T13:09:41.064Z,76.50
2018-01-10T13:12:08.462Z,76.64
2018-01-10T13:14:35.855Z,76.90
2018-01-10T13:17:03.263Z,76.81
2018-01-10T13:19:30.662Z,76.67
2018-01-10T13:21:58.067Z,76.44
2018-01-10T13:24:25.519Z,76.12
2018-01-10T13:26:52.930Z,76.91
2018-01-10T13:29:20.319Z,76.26
2018-01-10T13:31:47.721Z,75.49
2018-01-10T13:34:15.146Z,75.47
2018-01-10T13:36:42.534Z,75.17
2018-01-10T13:39:09.937Z,75.33
2018-01-10T13:41:37.321Z,75.18
2018-01-10T13:44:04.735Z,74.92
2018-01-10T13:46:32.156Z,74.36
2018-01-10T13:48:59.561Z,74.06
2018-01-10T13:51:26.959Z,73.97
2018-01-10T13:53:54.359Z,73.50
2018-01-10T13:56:21.770Z,74.30
2018-01-10T13:58:49.181Z,73.72
2018-01-10T14:01:16.595Z,73.94
2018-01-10T14:03:44.000Z,73.78
2018-01-10T14:06:11.395Z,73.83
2018-01-10T14:08:38.800Z,74.37
2018-01-10T14:11:06.192Z,74.79
2018-01-10T14:13:33.599Z,75.22
2018-01-10T14:16:01.107Z,75.55
2018-01-10T14:18:28.510Z,75.71
2018-01-10T14:20:55.915Z,76.18
2018-01-10T14:23:23.315Z,76.29
2018-01-10T14:25:50.722Z,76.02
2018-01-10T14:28:18.142Z,76.46
2018-01-10T14:30:45.704Z,76.51
2018-01-10T14:33:13.043Z,76.83
2018-01-10T14:35:40.546Z,77.07
2018-01-10T14:38:07.950Z,77.35
2018-01-10T14:40:35.347Z,77.09
2018-01-10T14:43:02.740Z,77.04
2018-01-10T14:45:30.171Z,77.06
2018-01-10T14:47:57.567Z,77.01
2018-01-10T14:50:24.963Z,77.29
2018-01-10T14:52:52.367Z,77.77
2018-01-10T14:55:19.782Z,78.01
2018-01-10T14:57:47.178Z,78.21
2018-01-10T15:00:14.575Z,78.21
2018-01-10T15:02:41.975Z,78.62
2018-01-10T15:05:09.398Z,78.53
2018-01-10T15:07:36.786Z,78.19
2018-01-10T15:10:04.202Z,78.10
2018-01-10T15:12:31.696Z,77.93
2018-01-10T15:14:59.098Z,78.13
2018-01-10T15:17:26.506Z,78.22
2018-01-10T15:19:53.954Z,78.05
2018-01-10T15:22:21.407Z,78.21
2018-01-10T15:24:49.705Z,78.95
2018-01-10T15:27:17.095Z,78.63
2018-01-10T15:29:44.498Z,78.86
2018-01-10T15:32:11.899Z,79.00
2018-01-10T15:34:39.310Z,79.45
2018-01-10T15:37:06.699Z,79.54
2018-01-10T15:39:34.086Z,79.07
2018-01-10T15:42:01.512Z,79.21
2018-01-10T15:44:28.902Z,78.25
2018-01-10T15:46:56.311Z,77.54
2018-01-10T15:49:23.707Z,76.92
2018-01-10T15:51:51.190Z,76.64
2018-01-10T15:54:18.579Z,76.85
2018-01-10T15:56:45.997Z,77.10
2018-01-10T15:59:13.392Z,76.84
2018-01-10T16:01:40.818Z,76.77
2018-01-10T16:04:08.215Z,76.82
2018-01-10T16:06:35.623Z,76.91
2018-01-10T16:09:03.024Z,76.85
2018-01-10T16:11:30.427Z,77.07
2018-01-10T16:13:57.832Z,77.25
2018-01-10T16:16:25.282Z,77.08
2018-01-10T16:18:52.673Z,77.30
2018-01-10T16:21:20.162Z,76.91
2018-01-10T16:23:47.554Z,76.43
2018-01-10T16:26:14.938Z,76.11
2018-01-10T16:28:42.342Z,76.24
2018-01-10T16:31:09.739Z,76.67
2018-01-10T16:33:37.145Z,76.83
2018-01-10T16:36:04.523Z,76.92
2018-01-10T16:38:32.722Z,77.18
2018-01-10T16:41:00.124Z,77.59
2018-01-10T16:43:27.515Z,77.41
2018-01-10T16:45:54.933Z,77.29
2018-01-10T16:48:22.336Z,78.23
2018-01-10T16:50:49.724Z,78.92
2018-01-10T16:53:17.123Z,78.23
2018-01-10T16:55:44.519Z,77.88
2018-01-10T16:58:12.008Z,77.76
2018-01-10T17:00:39.399Z,77.69
2018-01-10T17:03:06.798Z,77.79
2018-01-10T17:05:34.192Z,77.47
2018-01-10T17:08:01.595Z,77.65
2018-01-10T17:10:28.991Z,77.24
2018-01-10T17:12:56.393Z,77.12
2018-01-10T17:15:23.790Z,76.82
2018-01-10T17:17:51.216Z,76.72
2018-01-10T17:20:18.613Z,76.95
2018-01-10T17:22:46.003Z,76.70
2018-01-10T17:25:13.417Z,76.73
2018-01-10T17:27:40.814Z,76.44
2018-01-10T17:30:08.235Z,75.85
2018-01-10T17:32:35.626Z,75.45
2018-01-10T17:35:03.032Z,75.06
2018-01-10T17:37:30.427Z,75.21
2018-01-10T17:39:57.827Z,76.21
2018-01-10T17:42:25.228Z,77.58
2018-01-10T17:44:52.631Z,78.07
2018-01-10T17:47:20.034Z,78.92
2018-01-10T17:49:47.434Z,78.46
2018-01-10T17:52:14.832Z,78.51
2018-01-10T17:54:42.230Z,78.56
2018-01-10T17:57:09.630Z,77.97
2018-01-10T17:59:37.040Z,77.47
2018-01-10T18:02:04.434Z,77.04
2018-01-10T18:04:31.838Z,76.67
2018-01-10T18:06:59.252Z,76.58
2018-01-10T18:09:26.668Z,76.76
2018-01-10T18:11:54.071Z,77.17
2018-01-10T18:14:21.462Z,77.80
2018-01-10T18:16:48.871Z,77.89
2018-01-10T18:19:16.254Z,77.87
2018-01-10T18:21:43.678Z,77.78
2018-01-10T18:26:48.079Z,78.21
2018-01-10T18:29:15.477Z,78.39
2018-01-10T18:31:42.885Z,78.39
2018-01-10T18:34:10.387Z,78.44
2018-01-10T18:36:37.783Z,78.01
2018-01-10T18:39:05.224Z,77.87
2018-01-10T18:41:32.647Z,78.60
2018-01-10T18:44:00.048Z,78.96
2018-01-10T18:46:27.462Z,78.24
2018-01-10T18:48:54.859Z,78.11
2018-01-10T18:51:22.280Z,78.11
2018-01-10T18:53:49.666Z,78.92
2018-01-10T18:56:17.074Z,79.33
2018-01-10T18:58:44.551Z,79.61
2018-01-10T19:01:11.961Z,80.01
2018-01-10T19:03:39.351Z,80.33
2018-01-10T19:06:06.746Z,80.75
2018-01-10T19:08:34.183Z,81.64
2018-01-10T19:11:01.611Z,81.40
2018-01-10T19:13:29.006Z,80.90
2018-01-10T19:15:56.403Z,80.56
2018-01-10T19:18:23.830Z,80.48
2018-01-10T19:20:51.231Z,80.16
2018-01-10T19:23:18.635Z,81.02
2018-01-10T19:25:46.027Z,81.39
2018-01-10T19:28:13.435Z,81.36
2018-01-10T19:30:40.832Z,81.49
2018-01-10T19:33:08.236Z,81.26
2018-01-10T19:35:35.629Z,81.46
2018-01-10T19:38:03.028Z,81.04
2018-01-10T19:40:30.420Z,81.53
2018-01-10T19:42:57.822Z,82.56
2018-01-10T19:45:25.239Z,81.67
2018-01-10T19:47:52.645Z,80.88
2018-01-10T19:50:20.040Z,81.24
2018-01-10T19:52:47.435Z,81.37
2018-01-10T19:55:14.834Z,81.77
2018-01-10T19:57:42.239Z,81.80
2018-01-10T20:00:09.634Z,81.53
2018-01-10T20:02:37.044Z,82.00
2018-01-10T20:05:04.443Z,82.76
2018-01-10T20:07:31.832Z,83.72
2018-01-10T20:09:59.235Z,84.48
2018-01-10T20:12:26.639Z,83.44
2018-01-10T20:14:54.041Z,84.68
2018-01-10T20:17:21.432Z,84.81
2018-01-10T20:19:48.837Z,85.27
2018-01-10T20:22:16.229Z,85.47
2018-01-10T20:24:43.623Z,85.78
2018-01-10T20:27:11.014Z,84.58
2018-01-10T20:29:38.419Z,83.46
2018-01-10T20:32:05.870Z,82.88
2018-01-10T20:34:33.270Z,82.12
2018-01-10T20:37:00.683Z,82.26
2018-01-10T20:39:28.119Z,83.96
2018-01-10T20:41:55.495Z,83.44
2018-01-10T20:44:22.917Z,81.24
2018-01-10T20:46:50.314Z,80.83
2018-01-10T20:49:17.712Z,79.14
2018-01-10T20:51:45.111Z,78.69
2018-01-10T20:54:12.493Z,78.24
2018-01-10T20:56:39.901Z,77.91
2018-01-10T20:59:07.303Z,79.69
2018-01-10T21:01:34.706Z,80.13
2018-01-10T21:04:02.096Z,80.22
2018-01-10T21:06:29.502Z,80.32
2018-01-10T21:08:56.900Z,80.24
2018-01-10T21:11:24.315Z,80.03
2018-01-10T21:13:51.706Z,79.59
2018-01-10T21:16:19.111Z,79.30
2018-01-10T21:18:46.515Z,79.04
2018-01-10T21:21:13.922Z,78.45
2018-01-10T21:23:41.338Z,77.75
2018-01-10T21:26:08.771Z,77.32
2018-01-10T21:28:36.181Z,76.80
2018-01-10T21:31:03.699Z,76.55
2018-01-10T21:33:31.136Z,76.71
2018-01-10T21:35:58.542Z,76.51
2018-01-10T21:38:25.955Z,76.11
2018-01-10T21:40:53.330Z,75.86
2018-01-10T21:43:20.734Z,75.82
2018-01-10T21:45:48.147Z,75.88
2018-01-10T21:48:15.543Z,76.07
2018-01-10T21:50:42.970Z,77.73
2018-01-10T21:53:10.374Z,79.85
2018-01-10T21:55:37.862Z,79.79
2018-01-10T21:58:05.267Z,78.86
2018-01-10T22:00:32.663Z,78.30
2018-01-10T22:03:00.111Z,78.09
2018-01-10T22:05:27.523Z,77.75
2018-01-10T22:07:54.931Z,77.45
2018-01-10T22:10:22.342Z,77.30
2018-01-10T22:12:49.748Z,77.34
2018-01-10T22:15:17.185Z,77.46
2018-01-10T22:17:44.582Z,78.02
2018-01-10T22:22:38.667Z,77.84
2018-01-10T22:25:06.064Z,77.85
2018-01-10T22:27:33.471Z,77.59
2018-01-10T22:30:00.876Z,77.36
2018-01-10T22:32:28.271Z,77.19
2018-01-10T22:34:55.671Z,77.96
2018-01-10T22:37:23.067Z,79.06
2018-01-10T22:39:50.534Z,78.91
2018-01-10T22:42:17.914Z,78.12
2018-01-10T22:44:45.342Z,77.79
2018-01-10T22:47:12.742Z,77.98
2018-01-10T22:49:40.135Z,77.85
2018-01-10T22:52:07.527Z,77.88
2018-01-10T22:54:34.928Z,77.70
2018-01-10T22:57:02.319Z,77.96
2018-01-10T22:59:29.730Z,77.79
2018-01-10T23:01:57.118Z,77.36
2018-01-10T23:04:24.512Z,77.05
2018-01-10T23:06:51.908Z,76.84
2018-01-10T23:09:19.290Z,76.74
2018-01-10T23:11:46.737Z,76.82
2018-01-10T23:14:14.083Z,77.62
2018-01-10T23:19:08.167Z,78.74
2018-01-10T23:21:35.560Z,78.92
2018-01-10T23:24:02.971Z,79.21
2018-01-10T23:26:30.371Z,79.75
2018-01-10T23:28:57.763Z,79.31
2018-01-10T23:31:25.172Z,79.13
2018-01-10T23:33:52.567Z,79.31
2018-01-10T23:36:19.967Z,79.28
2018-01-10T23:38:47.358Z,80.04
2018-01-10T23:41:14.854Z,80.73
2018-01-10T23:43:42.243Z,80.43
2018-01-10T23:46:09.638Z,80.38
2018-01-10T23:48:37.030Z,80.39
2018-01-10T23:51:04.437Z,80.83
2018-01-10T23:53:31.826Z,81.02
2018-01-10T23:55:59.226Z,81.72
2018-01-10T23:58:26.631Z,82.67
